sensor_id;sensor_type;location;lat;lon;timestamp;P1;durP1;ratioP1;P2;durP2;ratioP2
24305;SDS011;12423;48.768;8.850;2024-01-30T00:01:18;12.68;;;6.50;;
24305;SDS011;12423;48.768;8.850;2024-01-30T00:03:45;12.90;;;5.57;;
24305;SDS011;12423;48.768;8.850;2024-01-30T00:06:13;12.68;;;6.30;;
24305;SDS011;12423;48.768;8.850;2024-01-30T00:08:41;13.88;;;6.60;;
24305;SDS011;12423;48.768;8.850;2024-01-30T00:11:10;16.40;;;6.18;;
24305;SDS011;12423;48.768;8.850;2024-01-30T00:13:37;8.40;;;5.22;;
24305;SDS011;12423;48.768;8.850;2024-01-30T00:16:05;14.23;;;6.25;;
24305;SDS011;12423;48.768;8.850;2024-01-30T00:18:35;9.73;;;5.70;;
24305;SDS011;12423;48.768;8.850;2024-01-30T00:21:03;14.20;;;6.50;;
24305;SDS011;12423;48.768;8.850;2024-01-30T00:23:31;10.32;;;5.82;;
24305;SDS011;12423;48.768;8.850;2024-01-30T00:25:58;11.40;;;6.28;;
24305;SDS011;12423;48.768;8.850;2024-01-30T00:28:27;10.82;;;5.85;;
24305;SDS011;12423;48.768;8.850;2024-01-30T00:30:55;10.98;;;6.43;;
24305;SDS011;12423;48.768;8.850;2024-01-30T00:33:23;10.38;;;5.72;;
24305;SDS011;12423;48.768;8.850;2024-01-30T00:35:50;10.80;;;5.82;;
24305;SDS011;12423;48.768;8.850;2024-01-30T00:38:18;12.70;;;5.57;;
24305;SDS011;12423;48.768;8.850;2024-01-30T00:40:46;10.82;;;5.75;;
24305;SDS011;12423;48.768;8.850;2024-01-30T00:43:13;11.32;;;5.72;;
24305;SDS011;12423;48.768;8.850;2024-01-30T00:45:43;11.13;;;5.80;;
24305;SDS011;12423;48.768;8.850;2024-01-30T00:48:11;13.18;;;5.78;;
24305;SDS011;12423;48.768;8.850;2024-01-30T00:50:38;12.10;;;5.75;;
24305;SDS011;12423;48.768;8.850;2024-01-30T00:53:06;12.25;;;5.50;;
24305;SDS011;12423;48.768;8.850;2024-01-30T00:55:34;10.80;;;5.80;;
24305;SDS011;12423;48.768;8.850;2024-01-30T00:58:02;14.48;;;6.60;;
24305;SDS011;12423;48.768;8.850;2024-01-30T01:00:30;10.52;;;5.45;;
24305;SDS011;12423;48.768;8.850;2024-01-30T01:02:59;14.63;;;6.03;;
24305;SDS011;12423;48.768;8.850;2024-01-30T01:05:27;12.13;;;6.57;;
24305;SDS011;12423;48.768;8.850;2024-01-30T01:07:55;13.13;;;7.07;;
24305;SDS011;12423;48.768;8.850;2024-01-30T01:10:22;12.18;;;6.60;;
24305;SDS011;12423;48.768;8.850;2024-01-30T01:12:50;10.60;;;5.63;;
24305;SDS011;12423;48.768;8.850;2024-01-30T01:15:18;11.73;;;5.90;;
24305;SDS011;12423;48.768;8.850;2024-01-30T01:17:46;11.88;;;5.88;;
24305;SDS011;12423;48.768;8.850;2024-01-30T01:20:15;8.43;;;5.18;;
24305;SDS011;12423;48.768;8.850;2024-01-30T01:22:42;11.73;;;5.47;;
24305;SDS011;12423;48.768;8.850;2024-01-30T01:25:10;10.85;;;5.85;;
24305;SDS011;12423;48.768;8.850;2024-01-30T01:27:38;10.63;;;4.97;;
24305;SDS011;12423;48.768;8.850;2024-01-30T01:30:08;9.45;;;5.05;;
24305;SDS011;12423;48.768;8.850;2024-01-30T01:32:38;9.68;;;5.15;;
24305;SDS011;12423;48.768;8.850;2024-01-30T01:35:11;10.10;;;5.35;;
24305;SDS011;12423;48.768;8.850;2024-01-30T01:37:41;10.77;;;5.60;;
24305;SDS011;12423;48.768;8.850;2024-01-30T01:40:09;10.60;;;5.32;;
24305;SDS011;12423;48.768;8.850;2024-01-30T01:42:37;13.98;;;5.43;;
24305;SDS011;12423;48.768;8.850;2024-01-30T01:45:04;9.93;;;5.13;;
24305;SDS011;12423;48.768;8.850;2024-01-30T01:47:32;9.27;;;4.90;;
24305;SDS011;12423;48.768;8.850;2024-01-30T01:50:00;10.23;;;5.47;;
24305;SDS011;12423;48.768;8.850;2024-01-30T01:52:28;9.32;;;5.20;;
24305;SDS011;12423;48.768;8.850;2024-01-30T01:54:57;11.98;;;5.50;;
24305;SDS011;12423;48.768;8.850;2024-01-30T01:57:25;9.57;;;5.43;;
24305;SDS011;12423;48.768;8.850;2024-01-30T01:59:53;10.43;;;5.15;;
24305;SDS011;12423;48.768;8.850;2024-01-30T02:02:22;8.45;;;5.03;;
24305;SDS011;12423;48.768;8.850;2024-01-30T02:04:52;8.20;;;4.93;;
24305;SDS011;12423;48.768;8.850;2024-01-30T02:07:20;11.35;;;5.45;;
24305;SDS011;12423;48.768;8.850;2024-01-30T02:09:47;8.90;;;5.13;;
24305;SDS011;12423;48.768;8.850;2024-01-30T02:12:16;10.52;;;4.70;;
24305;SDS011;12423;48.768;8.850;2024-01-30T02:14:44;8.90;;;5.07;;
24305;SDS011;12423;48.768;8.850;2024-01-30T02:17:12;10.40;;;5.33;;
24305;SDS011;12423;48.768;8.850;2024-01-30T02:19:40;9.77;;;5.03;;
24305;SDS011;12423;48.768;8.850;2024-01-30T02:22:09;9.82;;;5.50;;
24305;SDS011;12423;48.768;8.850;2024-01-30T02:27:05;9.75;;;5.05;;
24305;SDS011;12423;48.768;8.850;2024-01-30T02:29:32;10.65;;;4.75;;
24305;SDS011;12423;48.768;8.850;2024-01-30T02:32:00;10.13;;;4.70;;
24305;SDS011;12423;48.768;8.850;2024-01-30T02:34:28;11.48;;;5.25;;
24305;SDS011;12423;48.768;8.850;2024-01-30T02:36:55;11.32;;;5.18;;
24305;SDS011;12423;48.768;8.850;2024-01-30T02:39:24;10.10;;;4.57;;
24305;SDS011;12423;48.768;8.850;2024-01-30T02:41:52;11.35;;;5.90;;
24305;SDS011;12423;48.768;8.850;2024-01-30T02:44:21;11.95;;;5.80;;
24305;SDS011;12423;48.768;8.850;2024-01-30T02:46:48;9.57;;;4.78;;
24305;SDS011;12423;48.768;8.850;2024-01-30T02:49:16;10.27;;;5.57;;
24305;SDS011;12423;48.768;8.850;2024-01-30T02:51:44;11.00;;;5.20;;
24305;SDS011;12423;48.768;8.850;2024-01-30T02:54:12;10.75;;;4.90;;
24305;SDS011;12423;48.768;8.850;2024-01-30T02:56:41;10.52;;;5.90;;
24305;SDS011;12423;48.768;8.850;2024-01-30T02:59:08;16.52;;;5.13;;
24305;SDS011;12423;48.768;8.850;2024-01-30T03:01:42;9.77;;;5.00;;
24305;SDS011;12423;48.768;8.850;2024-01-30T03:04:10;9.88;;;4.80;;
24305;SDS011;12423;48.768;8.850;2024-01-30T03:06:38;8.50;;;4.97;;
24305;SDS011;12423;48.768;8.850;2024-01-30T03:09:06;8.07;;;4.60;;
24305;SDS011;12423;48.768;8.850;2024-01-30T03:14:04;8.00;;;3.83;;
24305;SDS011;12423;48.768;8.850;2024-01-30T03:16:32;11.55;;;4.38;;
24305;SDS011;12423;48.768;8.850;2024-01-30T03:18:59;7.10;;;3.67;;
24305;SDS011;12423;48.768;8.850;2024-01-30T03:21:28;7.82;;;5.03;;
24305;SDS011;12423;48.768;8.850;2024-01-30T03:23:56;9.30;;;3.70;;
24305;SDS011;12423;48.768;8.850;2024-01-30T03:26:23;11.40;;;4.75;;
24305;SDS011;12423;48.768;8.850;2024-01-30T03:28:51;9.35;;;4.20;;
24305;SDS011;12423;48.768;8.850;2024-01-30T03:31:20;10.35;;;4.65;;
24305;SDS011;12423;48.768;8.850;2024-01-30T03:33:48;5.95;;;3.75;;
24305;SDS011;12423;48.768;8.850;2024-01-30T03:36:15;8.15;;;3.80;;
24305;SDS011;12423;48.768;8.850;2024-01-30T03:38:43;9.82;;;4.30;;
24305;SDS011;12423;48.768;8.850;2024-01-30T03:41:11;10.63;;;4.20;;
24305;SDS011;12423;48.768;8.850;2024-01-30T03:43:38;7.20;;;4.45;;
24305;SDS011;12423;48.768;8.850;2024-01-30T03:46:06;9.63;;;4.53;;
24305;SDS011;12423;48.768;8.850;2024-01-30T03:48:35;9.00;;;4.45;;
24305;SDS011;12423;48.768;8.850;2024-01-30T03:51:03;10.20;;;5.00;;
24305;SDS011;12423;48.768;8.850;2024-01-30T03:53:31;9.07;;;4.80;;
24305;SDS011;12423;48.768;8.850;2024-01-30T03:55:59;9.05;;;4.15;;
24305;SDS011;12423;48.768;8.850;2024-01-30T03:58:26;10.98;;;4.50;;
24305;SDS011;12423;48.768;8.850;2024-01-30T04:00:54;9.85;;;5.00;;
24305;SDS011;12423;48.768;8.850;2024-01-30T04:03:22;7.45;;;4.30;;
24305;SDS011;12423;48.768;8.850;2024-01-30T04:05:52;7.00;;;3.83;;
24305;SDS011;12423;48.768;8.850;2024-01-30T04:08:20;7.68;;;4.00;;
24305;SDS011;12423;48.768;8.850;2024-01-30T04:10:48;11.88;;;5.25;;
24305;SDS011;12423;48.768;8.850;2024-01-30T04:13:16;12.93;;;4.40;;
24305;SDS011;12423;48.768;8.850;2024-01-30T04:15:44;9.38;;;4.68;;
24305;SDS011;12423;48.768;8.850;2024-01-30T04:18:11;6.90;;;3.83;;
24305;SDS011;12423;48.768;8.850;2024-01-30T04:20:39;9.93;;;4.82;;
24305;SDS011;12423;48.768;8.850;2024-01-30T04:23:08;13.48;;;4.88;;
24305;SDS011;12423;48.768;8.850;2024-01-30T04:25:36;11.57;;;4.60;;
24305;SDS011;12423;48.768;8.850;2024-01-30T04:28:03;7.32;;;4.03;;
24305;SDS011;12423;48.768;8.850;2024-01-30T04:30:31;10.18;;;4.60;;
24305;SDS011;12423;48.768;8.850;2024-01-30T04:32:59;11.07;;;6.40;;
24305;SDS011;12423;48.768;8.850;2024-01-30T04:35:26;9.60;;;4.65;;
24305;SDS011;12423;48.768;8.850;2024-01-30T04:37:54;6.57;;;3.80;;
24305;SDS011;12423;48.768;8.850;2024-01-30T04:40:23;9.45;;;4.43;;
24305;SDS011;12423;48.768;8.850;2024-01-30T04:42:51;7.07;;;3.72;;
24305;SDS011;12423;48.768;8.850;2024-01-30T04:45:19;11.07;;;4.55;;
24305;SDS011;12423;48.768;8.850;2024-01-30T04:47:46;7.65;;;3.95;;
24305;SDS011;12423;48.768;8.850;2024-01-30T04:50:14;7.45;;;3.22;;
24305;SDS011;12423;48.768;8.850;2024-01-30T04:52:42;9.85;;;4.18;;
24305;SDS011;12423;48.768;8.850;2024-01-30T04:55:09;7.68;;;3.58;;
24305;SDS011;12423;48.768;8.850;2024-01-30T04:57:38;11.93;;;4.13;;
24305;SDS011;12423;48.768;8.850;2024-01-30T05:00:06;7.07;;;4.60;;
24305;SDS011;12423;48.768;8.850;2024-01-30T05:02:35;12.27;;;5.13;;
24305;SDS011;12423;48.768;8.850;2024-01-30T05:05:03;7.95;;;4.07;;
24305;SDS011;12423;48.768;8.850;2024-01-30T05:07:31;6.83;;;3.80;;
24305;SDS011;12423;48.768;8.850;2024-01-30T05:09:59;8.15;;;4.50;;
24305;SDS011;12423;48.768;8.850;2024-01-30T05:12:31;8.23;;;4.32;;
24305;SDS011;12423;48.768;8.850;2024-01-30T05:15:00;9.15;;;5.05;;
24305;SDS011;12423;48.768;8.850;2024-01-30T05:17:27;8.18;;;4.20;;
24305;SDS011;12423;48.768;8.850;2024-01-30T05:19:55;10.52;;;4.55;;
24305;SDS011;12423;48.768;8.850;2024-01-30T05:22:22;8.57;;;4.10;;
24305;SDS011;12423;48.768;8.850;2024-01-30T05:24:50;9.48;;;4.38;;
24305;SDS011;12423;48.768;8.850;2024-01-30T05:27:18;7.90;;;4.03;;
24305;SDS011;12423;48.768;8.850;2024-01-30T05:29:46;8.05;;;4.05;;
24305;SDS011;12423;48.768;8.850;2024-01-30T05:32:14;8.45;;;4.40;;
24305;SDS011;12423;48.768;8.850;2024-01-30T05:34:42;8.48;;;5.10;;
24305;SDS011;12423;48.768;8.850;2024-01-30T05:37:10;9.05;;;4.45;;
24305;SDS011;12423;48.768;8.850;2024-01-30T05:39:40;10.48;;;4.70;;
24305;SDS011;12423;48.768;8.850;2024-01-30T05:42:08;6.90;;;3.97;;
24305;SDS011;12423;48.768;8.850;2024-01-30T05:44:36;7.78;;;4.70;;
24305;SDS011;12423;48.768;8.850;2024-01-30T05:47:04;11.15;;;4.05;;
24305;SDS011;12423;48.768;8.850;2024-01-30T05:49:33;7.85;;;4.20;;
24305;SDS011;12423;48.768;8.850;2024-01-30T05:52:01;7.47;;;4.05;;
24305;SDS011;12423;48.768;8.850;2024-01-30T05:54:29;6.90;;;2.90;;
24305;SDS011;12423;48.768;8.850;2024-01-30T05:57:02;6.30;;;3.97;;
24305;SDS011;12423;48.768;8.850;2024-01-30T05:59:30;8.18;;;4.05;;
24305;SDS011;12423;48.768;8.850;2024-01-30T06:01:57;6.93;;;3.67;;
24305;SDS011;12423;48.768;8.850;2024-01-30T06:04:25;8.15;;;4.38;;
24305;SDS011;12423;48.768;8.850;2024-01-30T06:06:55;11.60;;;4.50;;
24305;SDS011;12423;48.768;8.850;2024-01-30T06:09:22;9.77;;;3.97;;
24305;SDS011;12423;48.768;8.850;2024-01-30T06:11:50;7.15;;;3.95;;
24305;SDS011;12423;48.768;8.850;2024-01-30T06:14:18;7.25;;;4.03;;
24305;SDS011;12423;48.768;8.850;2024-01-30T06:16:45;8.10;;;4.05;;
24305;SDS011;12423;48.768;8.850;2024-01-30T06:19:13;10.48;;;4.28;;
24305;SDS011;12423;48.768;8.850;2024-01-30T06:21:41;10.93;;;4.47;;
24305;SDS011;12423;48.768;8.850;2024-01-30T06:24:10;8.48;;;4.07;;
24305;SDS011;12423;48.768;8.850;2024-01-30T06:26:37;6.60;;;3.85;;
24305;SDS011;12423;48.768;8.850;2024-01-30T06:29:05;7.63;;;4.30;;
24305;SDS011;12423;48.768;8.850;2024-01-30T06:31:39;8.45;;;4.35;;
24305;SDS011;12423;48.768;8.850;2024-01-30T06:34:07;9.65;;;5.05;;
24305;SDS011;12423;48.768;8.850;2024-01-30T06:36:35;7.63;;;4.32;;
24305;SDS011;12423;48.768;8.850;2024-01-30T06:39:03;10.30;;;4.35;;
24305;SDS011;12423;48.768;8.850;2024-01-30T06:41:32;9.30;;;4.78;;
24305;SDS011;12423;48.768;8.850;2024-01-30T06:44:01;6.53;;;4.32;;
24305;SDS011;12423;48.768;8.850;2024-01-30T06:46:30;8.23;;;4.18;;
24305;SDS011;12423;48.768;8.850;2024-01-30T06:48:58;8.82;;;4.45;;
24305;SDS011;12423;48.768;8.850;2024-01-30T06:51:26;12.32;;;4.15;;
24305;SDS011;12423;48.768;8.850;2024-01-30T06:53:54;9.15;;;4.40;;
24305;SDS011;12423;48.768;8.850;2024-01-30T06:56:21;11.75;;;4.78;;
24305;SDS011;12423;48.768;8.850;2024-01-30T06:58:50;12.52;;;5.45;;
24305;SDS011;12423;48.768;8.850;2024-01-30T07:01:18;25.98;;;9.68;;
24305;SDS011;12423;48.768;8.850;2024-01-30T07:03:46;17.65;;;7.88;;
24305;SDS011;12423;48.768;8.850;2024-01-30T07:06:14;14.98;;;6.68;;
24305;SDS011;12423;48.768;8.850;2024-01-30T07:08:41;14.93;;;7.90;;
24305;SDS011;12423;48.768;8.850;2024-01-30T07:11:09;14.88;;;6.55;;
24305;SDS011;12423;48.768;8.850;2024-01-30T07:16:07;15.02;;;7.00;;
24305;SDS011;12423;48.768;8.850;2024-01-30T07:18:35;15.50;;;6.55;;
24305;SDS011;12423;48.768;8.850;2024-01-30T07:21:03;14.65;;;6.55;;
24305;SDS011;12423;48.768;8.850;2024-01-30T07:23:30;16.20;;;7.07;;
24305;SDS011;12423;48.768;8.850;2024-01-30T07:26:00;15.80;;;7.45;;
24305;SDS011;12423;48.768;8.850;2024-01-30T07:28:28;10.48;;;6.07;;
24305;SDS011;12423;48.768;8.850;2024-01-30T07:30:56;13.55;;;6.28;;
24305;SDS011;12423;48.768;8.850;2024-01-30T07:33:25;11.77;;;5.72;;
24305;SDS011;12423;48.768;8.850;2024-01-30T07:38:21;10.38;;;6.05;;
24305;SDS011;12423;48.768;8.850;2024-01-30T07:40:48;11.07;;;6.18;;
24305;SDS011;12423;48.768;8.850;2024-01-30T07:43:16;9.38;;;5.88;;
24305;SDS011;12423;48.768;8.850;2024-01-30T07:45:45;13.13;;;5.95;;
24305;SDS011;12423;48.768;8.850;2024-01-30T07:48:13;12.73;;;6.63;;
24305;SDS011;12423;48.768;8.850;2024-01-30T07:50:42;11.70;;;5.82;;
24305;SDS011;12423;48.768;8.850;2024-01-30T07:53:10;15.13;;;6.03;;
24305;SDS011;12423;48.768;8.850;2024-01-30T07:55:37;11.45;;;6.47;;
24305;SDS011;12423;48.768;8.850;2024-01-30T07:58:05;13.05;;;6.82;;
24305;SDS011;12423;48.768;8.850;2024-01-30T08:00:33;13.80;;;6.57;;
24305;SDS011;12423;48.768;8.850;2024-01-30T08:03:01;13.00;;;6.75;;
24305;SDS011;12423;48.768;8.850;2024-01-30T08:05:28;15.93;;;8.85;;
24305;SDS011;12423;48.768;8.850;2024-01-30T08:07:57;13.57;;;8.35;;
24305;SDS011;12423;48.768;8.850;2024-01-30T08:10:25;15.40;;;8.88;;
24305;SDS011;12423;48.768;8.850;2024-01-30T08:12:53;13.68;;;8.05;;
24305;SDS011;12423;48.768;8.850;2024-01-30T08:15:21;13.70;;;7.35;;
24305;SDS011;12423;48.768;8.850;2024-01-30T08:17:48;13.15;;;7.95;;
24305;SDS011;12423;48.768;8.850;2024-01-30T08:20:16;11.95;;;7.75;;
24305;SDS011;12423;48.768;8.850;2024-01-30T08:22:44;13.48;;;8.07;;
24305;SDS011;12423;48.768;8.850;2024-01-30T08:25:13;16.77;;;8.20;;
24305;SDS011;12423;48.768;8.850;2024-01-30T08:30:09;17.73;;;8.90;;
24305;SDS011;12423;48.768;8.850;2024-01-30T08:32:37;13.13;;;7.83;;
24305;SDS011;12423;48.768;8.850;2024-01-30T08:35:05;16.05;;;8.85;;
24305;SDS011;12423;48.768;8.850;2024-01-30T08:37:33;13.60;;;7.87;;
24305;SDS011;12423;48.768;8.850;2024-01-30T08:40:01;25.20;;;13.07;;
24305;SDS011;12423;48.768;8.850;2024-01-30T08:42:32;40.85;;;18.92;;
24305;SDS011;12423;48.768;8.850;2024-01-30T08:47:27;15.70;;;9.82;;
24305;SDS011;12423;48.768;8.850;2024-01-30T08:49:55;17.98;;;11.00;;
24305;SDS011;12423;48.768;8.850;2024-01-30T08:52:23;19.58;;;10.80;;
24305;SDS011;12423;48.768;8.850;2024-01-30T08:54:50;19.88;;;11.77;;
24305;SDS011;12423;48.768;8.850;2024-01-30T08:57:18;24.08;;;13.60;;
24305;SDS011;12423;48.768;8.850;2024-01-30T08:59:47;27.05;;;13.80;;
24305;SDS011;12423;48.768;8.850;2024-01-30T09:02:15;25.15;;;13.20;;
24305;SDS011;12423;48.768;8.850;2024-01-30T09:04:44;26.25;;;13.98;;
24305;SDS011;12423;48.768;8.850;2024-01-30T09:07:12;23.52;;;15.40;;
24305;SDS011;12423;48.768;8.850;2024-01-30T09:09:41;28.67;;;17.50;;
24305;SDS011;12423;48.768;8.850;2024-01-30T09:12:08;25.90;;;14.77;;
24305;SDS011;12423;48.768;8.850;2024-01-30T09:14:38;21.48;;;15.00;;
24305;SDS011;12423;48.768;8.850;2024-01-30T09:17:08;16.00;;;10.33;;
24305;SDS011;12423;48.768;8.850;2024-01-30T09:19:36;20.88;;;11.95;;
24305;SDS011;12423;48.768;8.850;2024-01-30T09:22:04;14.70;;;7.40;;
24305;SDS011;12423;48.768;8.850;2024-01-30T09:24:32;8.82;;;5.63;;
24305;SDS011;12423;48.768;8.850;2024-01-30T09:27:00;8.95;;;6.05;;
24305;SDS011;12423;48.768;8.850;2024-01-30T09:29:28;14.45;;;7.90;;
24305;SDS011;12423;48.768;8.850;2024-01-30T09:31:56;10.85;;;6.20;;
24305;SDS011;12423;48.768;8.850;2024-01-30T09:34:25;9.00;;;5.75;;
24305;SDS011;12423;48.768;8.850;2024-01-30T09:36:53;11.68;;;6.43;;
24305;SDS011;12423;48.768;8.850;2024-01-30T09:39:20;8.80;;;4.72;;
24305;SDS011;12423;48.768;8.850;2024-01-30T09:41:49;11.13;;;5.43;;
24305;SDS011;12423;48.768;8.850;2024-01-30T09:44:23;11.25;;;5.25;;
24305;SDS011;12423;48.768;8.850;2024-01-30T09:46:55;10.98;;;5.32;;
24305;SDS011;12423;48.768;8.850;2024-01-30T09:49:26;13.55;;;6.72;;
24305;SDS011;12423;48.768;8.850;2024-01-30T09:54:22;12.07;;;6.72;;
24305;SDS011;12423;48.768;8.850;2024-01-30T09:56:50;18.48;;;8.80;;
24305;SDS011;12423;48.768;8.850;2024-01-30T09:59:18;17.77;;;9.43;;
24305;SDS011;12423;48.768;8.850;2024-01-30T10:01:46;16.05;;;7.72;;
24305;SDS011;12423;48.768;8.850;2024-01-30T10:04:13;12.90;;;7.28;;
24305;SDS011;12423;48.768;8.850;2024-01-30T10:06:43;13.10;;;6.88;;
24305;SDS011;12423;48.768;8.850;2024-01-30T10:09:11;11.13;;;6.05;;
24305;SDS011;12423;48.768;8.850;2024-01-30T10:11:39;11.87;;;6.57;;
24305;SDS011;12423;48.768;8.850;2024-01-30T10:14:07;10.57;;;6.45;;
24305;SDS011;12423;48.768;8.850;2024-01-30T10:16:34;14.98;;;8.35;;
24305;SDS011;12423;48.768;8.850;2024-01-30T10:19:02;17.15;;;9.50;;
24305;SDS011;12423;48.768;8.850;2024-01-30T10:21:30;15.23;;;7.75;;
24305;SDS011;12423;48.768;8.850;2024-01-30T10:23:59;10.93;;;6.20;;
24305;SDS011;12423;48.768;8.850;2024-01-30T10:26:27;11.32;;;5.78;;
24305;SDS011;12423;48.768;8.850;2024-01-30T10:28:55;16.23;;;6.65;;
24305;SDS011;12423;48.768;8.850;2024-01-30T10:31:23;11.80;;;6.35;;
24305;SDS011;12423;48.768;8.850;2024-01-30T10:33:51;13.87;;;7.07;;
24305;SDS011;12423;48.768;8.850;2024-01-30T10:36:34;9.68;;;5.45;;
24305;SDS011;12423;48.768;8.850;2024-01-30T10:39:08;10.82;;;5.28;;
24305;SDS011;12423;48.768;8.850;2024-01-30T10:44:10;8.65;;;5.70;;
24305;SDS011;12423;48.768;8.850;2024-01-30T10:46:38;7.85;;;5.40;;
24305;SDS011;12423;48.768;8.850;2024-01-30T10:49:06;10.75;;;6.07;;
24305;SDS011;12423;48.768;8.850;2024-01-30T10:51:34;8.85;;;5.40;;
24305;SDS011;12423;48.768;8.850;2024-01-30T10:54:04;8.95;;;4.93;;
24305;SDS011;12423;48.768;8.850;2024-01-30T10:56:35;11.63;;;5.95;;
24305;SDS011;12423;48.768;8.850;2024-01-30T10:59:04;14.02;;;5.22;;
24305;SDS011;12423;48.768;8.850;2024-01-30T11:01:35;11.88;;;6.68;;
24305;SDS011;12423;48.768;8.850;2024-01-30T11:04:03;13.55;;;6.75;;
24305;SDS011;12423;48.768;8.850;2024-01-30T11:06:31;8.45;;;6.00;;
24305;SDS011;12423;48.768;8.850;2024-01-30T11:09:02;13.45;;;6.07;;
24305;SDS011;12423;48.768;8.850;2024-01-30T11:11:48;10.30;;;6.05;;
24305;SDS011;12423;48.768;8.850;2024-01-30T11:14:16;9.25;;;5.30;;
24305;SDS011;12423;48.768;8.850;2024-01-30T11:16:56;11.95;;;5.20;;
24305;SDS011;12423;48.768;8.850;2024-01-30T11:19:24;6.55;;;4.70;;
24305;SDS011;12423;48.768;8.850;2024-01-30T11:21:53;9.38;;;4.90;;
24305;SDS011;12423;48.768;8.850;2024-01-30T11:24:23;10.93;;;5.05;;
24305;SDS011;12423;48.768;8.850;2024-01-30T11:26:56;6.65;;;3.42;;
24305;SDS011;12423;48.768;8.850;2024-01-30T11:29:25;8.35;;;4.68;;
24305;SDS011;12423;48.768;8.850;2024-01-30T11:31:54;9.82;;;5.68;;
24305;SDS011;12423;48.768;8.850;2024-01-30T11:34:22;7.53;;;4.03;;
24305;SDS011;12423;48.768;8.850;2024-01-30T11:36:52;12.98;;;7.25;;
24305;SDS011;12423;48.768;8.850;2024-01-30T11:39:25;11.10;;;6.40;;
24305;SDS011;12423;48.768;8.850;2024-01-30T11:41:54;9.20;;;5.65;;
24305;SDS011;12423;48.768;8.850;2024-01-30T11:44:23;11.02;;;6.00;;
24305;SDS011;12423;48.768;8.850;2024-01-30T11:46:52;13.50;;;6.47;;
24305;SDS011;12423;48.768;8.850;2024-01-30T11:49:20;7.47;;;4.95;;
24305;SDS011;12423;48.768;8.850;2024-01-30T11:51:48;8.77;;;3.72;;
24305;SDS011;12423;48.768;8.850;2024-01-30T11:54:16;10.85;;;5.97;;
24305;SDS011;12423;48.768;8.850;2024-01-30T11:56:44;10.10;;;6.28;;
24305;SDS011;12423;48.768;8.850;2024-01-30T11:59:11;11.50;;;6.10;;
24305;SDS011;12423;48.768;8.850;2024-01-30T12:01:40;12.90;;;7.90;;
24305;SDS011;12423;48.768;8.850;2024-01-30T12:04:09;13.05;;;8.57;;
24305;SDS011;12423;48.768;8.850;2024-01-30T12:06:38;16.40;;;11.13;;
24305;SDS011;12423;48.768;8.850;2024-01-30T12:09:06;16.55;;;9.35;;
24305;SDS011;12423;48.768;8.850;2024-01-30T12:11:43;14.70;;;7.97;;
24305;SDS011;12423;48.768;8.850;2024-01-30T12:14:11;13.57;;;7.70;;
24305;SDS011;12423;48.768;8.850;2024-01-30T12:16:41;13.15;;;8.85;;
24305;SDS011;12423;48.768;8.850;2024-01-30T12:19:09;13.32;;;8.68;;
24305;SDS011;12423;48.768;8.850;2024-01-30T12:21:37;13.40;;;9.10;;
24305;SDS011;12423;48.768;8.850;2024-01-30T12:24:05;12.65;;;8.02;;
24305;SDS011;12423;48.768;8.850;2024-01-30T12:26:34;10.20;;;7.63;;
24305;SDS011;12423;48.768;8.850;2024-01-30T12:29:03;22.15;;;14.98;;
24305;SDS011;12423;48.768;8.850;2024-01-30T12:31:31;19.85;;;12.45;;
24305;SDS011;12423;48.768;8.850;2024-01-30T12:36:29;12.98;;;9.25;;
24305;SDS011;12423;48.768;8.850;2024-01-30T12:38:57;16.73;;;9.98;;
24305;SDS011;12423;48.768;8.850;2024-01-30T12:41:25;13.65;;;7.40;;
24305;SDS011;12423;48.768;8.850;2024-01-30T12:43:54;8.15;;;5.82;;
24305;SDS011;12423;48.768;8.850;2024-01-30T12:46:25;8.77;;;5.03;;
24305;SDS011;12423;48.768;8.850;2024-01-30T12:48:55;10.60;;;5.72;;
24305;SDS011;12423;48.768;8.850;2024-01-30T12:51:24;7.82;;;5.13;;
24305;SDS011;12423;48.768;8.850;2024-01-30T12:53:52;9.27;;;5.15;;
24305;SDS011;12423;48.768;8.850;2024-01-30T12:56:20;8.48;;;4.93;;
24305;SDS011;12423;48.768;8.850;2024-01-30T12:58:47;10.30;;;5.03;;
24305;SDS011;12423;48.768;8.850;2024-01-30T13:01:19;7.00;;;5.07;;
24305;SDS011;12423;48.768;8.850;2024-01-30T13:03:47;8.02;;;4.50;;
24305;SDS011;12423;48.768;8.850;2024-01-30T13:06:15;8.50;;;4.90;;
24305;SDS011;12423;48.768;8.850;2024-01-30T13:08:44;8.95;;;4.70;;
24305;SDS011;12423;48.768;8.850;2024-01-30T13:11:12;8.70;;;4.90;;
24305;SDS011;12423;48.768;8.850;2024-01-30T13:13:46;6.88;;;5.00;;
24305;SDS011;12423;48.768;8.850;2024-01-30T13:16:14;9.40;;;4.87;;
24305;SDS011;12423;48.768;8.850;2024-01-30T13:18:43;6.90;;;4.77;;
24305;SDS011;12423;48.768;8.850;2024-01-30T13:21:11;5.30;;;3.90;;
24305;SDS011;12423;48.768;8.850;2024-01-30T13:23:39;7.53;;;3.85;;
24305;SDS011;12423;48.768;8.850;2024-01-30T13:26:08;6.60;;;4.03;;
24305;SDS011;12423;48.768;8.850;2024-01-30T13:28:35;8.45;;;4.18;;
24305;SDS011;12423;48.768;8.850;2024-01-30T13:31:03;6.78;;;3.65;;
24305;SDS011;12423;48.768;8.850;2024-01-30T13:33:31;5.45;;;3.17;;
24305;SDS011;12423;48.768;8.850;2024-01-30T13:35:59;7.60;;;3.50;;
24305;SDS011;12423;48.768;8.850;2024-01-30T13:38:27;6.45;;;3.67;;
24305;SDS011;12423;48.768;8.850;2024-01-30T13:40:54;5.40;;;3.25;;
24305;SDS011;12423;48.768;8.850;2024-01-30T13:43:23;5.20;;;2.92;;
24305;SDS011;12423;48.768;8.850;2024-01-30T13:48:19;4.68;;;2.70;;
24305;SDS011;12423;48.768;8.850;2024-01-30T13:50:47;4.65;;;2.40;;
24305;SDS011;12423;48.768;8.850;2024-01-30T13:53:16;5.22;;;2.67;;
24305;SDS011;12423;48.768;8.850;2024-01-30T13:55:44;5.22;;;2.97;;
24305;SDS011;12423;48.768;8.850;2024-01-30T13:58:11;5.13;;;3.13;;
24305;SDS011;12423;48.768;8.850;2024-01-30T14:00:40;4.13;;;2.75;;
24305;SDS011;12423;48.768;8.850;2024-01-30T14:05:36;6.75;;;3.30;;
24305;SDS011;12423;48.768;8.850;2024-01-30T14:08:03;5.15;;;2.58;;
24305;SDS011;12423;48.768;8.850;2024-01-30T14:10:32;6.70;;;3.17;;
24305;SDS011;12423;48.768;8.850;2024-01-30T14:12:59;5.13;;;2.72;;
24305;SDS011;12423;48.768;8.850;2024-01-30T14:15:27;6.30;;;2.60;;
24305;SDS011;12423;48.768;8.850;2024-01-30T14:17:57;4.40;;;2.33;;
24305;SDS011;12423;48.768;8.850;2024-01-30T14:20:25;5.53;;;2.50;;
24305;SDS011;12423;48.768;8.850;2024-01-30T14:22:53;4.97;;;2.28;;
24305;SDS011;12423;48.768;8.850;2024-01-30T14:25:22;6.78;;;2.22;;
24305;SDS011;12423;48.768;8.850;2024-01-30T14:27:50;3.67;;;2.10;;
24305;SDS011;12423;48.768;8.850;2024-01-30T14:30:18;3.17;;;1.95;;
24305;SDS011;12423;48.768;8.850;2024-01-30T14:32:46;3.75;;;2.03;;
24305;SDS011;12423;48.768;8.850;2024-01-30T14:35:16;3.65;;;1.88;;
24305;SDS011;12423;48.768;8.850;2024-01-30T14:37:45;3.72;;;2.10;;
24305;SDS011;12423;48.768;8.850;2024-01-30T14:40:13;3.88;;;2.28;;
24305;SDS011;12423;48.768;8.850;2024-01-30T14:42:41;4.13;;;2.50;;
24305;SDS011;12423;48.768;8.850;2024-01-30T14:45:09;4.32;;;2.00;;
24305;SDS011;12423;48.768;8.850;2024-01-30T14:47:38;4.22;;;2.28;;
24305;SDS011;12423;48.768;8.850;2024-01-30T14:50:06;6.53;;;2.20;;
24305;SDS011;12423;48.768;8.850;2024-01-30T14:52:36;5.78;;;2.15;;
24305;SDS011;12423;48.768;8.850;2024-01-30T14:55:06;4.10;;;1.90;;
24305;SDS011;12423;48.768;8.850;2024-01-30T14:57:35;4.10;;;2.22;;
24305;SDS011;12423;48.768;8.850;2024-01-30T15:00:04;5.72;;;2.30;;
24305;SDS011;12423;48.768;8.850;2024-01-30T15:02:33;5.05;;;2.28;;
24305;SDS011;12423;48.768;8.850;2024-01-30T15:05:01;4.03;;;2.20;;
24305;SDS011;12423;48.768;8.850;2024-01-30T15:07:29;6.13;;;2.60;;
24305;SDS011;12423;48.768;8.850;2024-01-30T15:10:07;4.70;;;2.13;;
24305;SDS011;12423;48.768;8.850;2024-01-30T15:12:37;5.00;;;2.50;;
24305;SDS011;12423;48.768;8.850;2024-01-30T15:15:06;4.95;;;2.50;;